Terminal Aerodrome Forecast
Issued by NWS Cheyenne, WY

Home | Current Version | Previous Version | Text Only | Print | Product List | Glossary On
Versions: 1 2 3 4 5 6 7 8 9 10 11 12 13 14 15 16 17 18 19
000
FTUS45 KCYS 261506 AAB
TAFCYS
TAF AMD
KCYS 261506Z 2615/2712 30016G26KT P6SM FEW050
     FM262100 32015G25KT P6SM VCSH BKN060 OVC100
     FM270100 30007KT P6SM BKN100=

USA.gov is the U.S. government's official web portal to all federal, state and local government web resources and services.